sensor_id;sensor_type;location;lat;lon;timestamp;pressure;altitude;pressure_sealevel;temperature;humidity
79127;BME280;68528;48.814;8.904;2023-06-26T00:02:09;96364.03;;;17.69;54.66
79127;BME280;68528;48.814;8.904;2023-06-26T00:04:34;96363.31;;;17.61;55.07
79127;BME280;68528;48.814;8.904;2023-06-26T00:07:03;96348.00;;;17.46;55.10
79127;BME280;68528;48.814;8.904;2023-06-26T00:09:30;96355.19;;;17.40;55.70
79127;BME280;68528;48.814;8.904;2023-06-26T00:12:15;96354.69;;;17.52;55.26
79127;BME280;68528;48.814;8.904;2023-06-26T00:14:41;96366.91;;;17.58;54.93
79127;BME280;68528;48.814;8.904;2023-06-26T00:17:07;96357.84;;;17.54;55.16
79127;BME280;68528;48.814;8.904;2023-06-26T00:19:32;96360.94;;;17.60;55.27
79127;BME280;68528;48.814;8.904;2023-06-26T00:21:58;96349.06;;;17.63;54.94
79127;BME280;68528;48.814;8.904;2023-06-26T00:24:24;96353.94;;;17.45;56.01
79127;BME280;68528;48.814;8.904;2023-06-26T00:26:49;96358.59;;;17.58;56.13
79127;BME280;68528;48.814;8.904;2023-06-26T00:29:15;96363.41;;;17.47;56.08
79127;BME280;68528;48.814;8.904;2023-06-26T00:31:40;96351.56;;;17.50;56.03
79127;BME280;68528;48.814;8.904;2023-06-26T00:34:06;96360.31;;;17.42;56.34
79127;BME280;68528;48.814;8.904;2023-06-26T00:36:36;96361.88;;;17.43;56.90
79127;BME280;68528;48.814;8.904;2023-06-26T00:39:05;96360.41;;;17.31;56.44
79127;BME280;68528;48.814;8.904;2023-06-26T00:41:30;96357.16;;;17.40;55.69
79127;BME280;68528;48.814;8.904;2023-06-26T00:43:56;96365.09;;;17.34;56.57
79127;BME280;68528;48.814;8.904;2023-06-26T00:46:24;96359.56;;;17.34;56.03
79127;BME280;68528;48.814;8.904;2023-06-26T00:48:49;96337.13;;;17.21;56.02
79127;BME280;68528;48.814;8.904;2023-06-26T00:51:15;96359.94;;;17.40;56.30
79127;BME280;68528;48.814;8.904;2023-06-26T00:53:49;96351.44;;;17.13;57.12
79127;BME280;68528;48.814;8.904;2023-06-26T00:56:18;96358.97;;;17.12;57.53
79127;BME280;68528;48.814;8.904;2023-06-26T00:58:44;96354.19;;;17.16;57.43
79127;BME280;68528;48.814;8.904;2023-06-26T01:01:10;96354.56;;;17.18;56.96
79127;BME280;68528;48.814;8.904;2023-06-26T01:03:39;96363.97;;;17.28;56.29
79127;BME280;68528;48.814;8.904;2023-06-26T01:06:05;96356.41;;;17.32;57.21
79127;BME280;68528;48.814;8.904;2023-06-26T01:08:31;96349.47;;;17.13;57.14
79127;BME280;68528;48.814;8.904;2023-06-26T01:10:59;96338.66;;;16.82;58.20
79127;BME280;68528;48.814;8.904;2023-06-26T01:13:25;96352.78;;;16.94;58.07
79127;BME280;68528;48.814;8.904;2023-06-26T01:15:53;96356.75;;;16.93;57.99
79127;BME280;68528;48.814;8.904;2023-06-26T01:18:23;96357.19;;;16.85;57.99
79127;BME280;68528;48.814;8.904;2023-06-26T01:20:48;96358.06;;;16.71;58.45
79127;BME280;68528;48.814;8.904;2023-06-26T01:26:09;96358.50;;;16.70;58.09
79127;BME280;68528;48.814;8.904;2023-06-26T01:28:35;96344.34;;;16.57;58.79
79127;BME280;68528;48.814;8.904;2023-06-26T01:31:04;96347.50;;;16.59;58.52
79127;BME280;68528;48.814;8.904;2023-06-26T01:33:32;96338.34;;;16.69;58.50
79127;BME280;68528;48.814;8.904;2023-06-26T01:35:59;96348.59;;;16.69;59.21
79127;BME280;68528;48.814;8.904;2023-06-26T01:38:26;96341.97;;;16.59;59.61
79127;BME280;68528;48.814;8.904;2023-06-26T01:40:52;96335.66;;;16.48;59.84
79127;BME280;68528;48.814;8.904;2023-06-26T01:43:41;96338.06;;;16.53;60.00
79127;BME280;68528;48.814;8.904;2023-06-26T01:46:21;96334.09;;;16.54;59.50
79127;BME280;68528;48.814;8.904;2023-06-26T01:52:21;96336.44;;;16.59;60.48
79127;BME280;68528;48.814;8.904;2023-06-26T01:55:05;96318.25;;;16.58;60.37
79127;BME280;68528;48.814;8.904;2023-06-26T02:00:55;96334.13;;;16.47;59.89
79127;BME280;68528;48.814;8.904;2023-06-26T02:03:21;96332.06;;;16.58;60.39
79127;BME280;68528;48.814;8.904;2023-06-26T02:05:49;96338.06;;;16.46;60.85
79127;BME280;68528;48.814;8.904;2023-06-26T02:08:15;96324.72;;;16.27;61.36
79127;BME280;68528;48.814;8.904;2023-06-26T02:10:41;96335.00;;;16.30;61.73
79127;BME280;68528;48.814;8.904;2023-06-26T02:13:14;96336.53;;;16.38;61.07
79127;BME280;68528;48.814;8.904;2023-06-26T02:15:40;96342.13;;;16.24;61.45
79127;BME280;68528;48.814;8.904;2023-06-26T02:18:06;96331.47;;;16.26;61.32
79127;BME280;68528;48.814;8.904;2023-06-26T02:20:31;96338.09;;;16.39;61.05
79127;BME280;68528;48.814;8.904;2023-06-26T02:22:58;96342.91;;;16.28;61.44
79127;BME280;68528;48.814;8.904;2023-06-26T02:25:29;96340.91;;;16.32;60.72
79127;BME280;68528;48.814;8.904;2023-06-26T02:27:59;96340.94;;;16.18;61.42
79127;BME280;68528;48.814;8.904;2023-06-26T02:30:29;96334.31;;;16.05;61.88
79127;BME280;68528;48.814;8.904;2023-06-26T02:32:58;96344.50;;;16.18;62.14
79127;BME280;68528;48.814;8.904;2023-06-26T02:35:23;96335.81;;;16.20;61.59
79127;BME280;68528;48.814;8.904;2023-06-26T02:37:49;96336.66;;;16.13;61.91
79127;BME280;68528;48.814;8.904;2023-06-26T02:40:16;96333.50;;;16.08;61.89
79127;BME280;68528;48.814;8.904;2023-06-26T02:42:41;96341.84;;;16.01;62.64
79127;BME280;68528;48.814;8.904;2023-06-26T02:45:08;96329.69;;;15.77;63.09
79127;BME280;68528;48.814;8.904;2023-06-26T02:47:34;96332.81;;;15.76;63.39
79127;BME280;68528;48.814;8.904;2023-06-26T02:50:01;96329.28;;;15.75;63.46
79127;BME280;68528;48.814;8.904;2023-06-26T02:52:26;96324.94;;;15.78;63.24
79127;BME280;68528;48.814;8.904;2023-06-26T02:54:53;96335.19;;;15.81;63.49
79127;BME280;68528;48.814;8.904;2023-06-26T02:57:19;96342.28;;;15.82;63.49
79127;BME280;68528;48.814;8.904;2023-06-26T02:59:46;96339.16;;;15.65;63.70
79127;BME280;68528;48.814;8.904;2023-06-26T03:02:12;96329.34;;;15.57;64.00
79127;BME280;68528;48.814;8.904;2023-06-26T03:04:37;96319.91;;;15.44;64.08
79127;BME280;68528;48.814;8.904;2023-06-26T03:08:03;96334.44;;;15.59;64.30
79127;BME280;68528;48.814;8.904;2023-06-26T03:10:49;96331.31;;;15.46;64.49
79127;BME280;68528;48.814;8.904;2023-06-26T03:13:14;96337.63;;;15.57;64.09
79127;BME280;68528;48.814;8.904;2023-06-26T03:15:39;96326.63;;;15.43;64.61
79127;BME280;68528;48.814;8.904;2023-06-26T03:18:05;96336.84;;;15.50;64.64
79127;BME280;68528;48.814;8.904;2023-06-26T03:20:32;96326.63;;;15.43;64.42
79127;BME280;68528;48.814;8.904;2023-06-26T03:23:01;96336.03;;;15.56;64.17
79127;BME280;68528;48.814;8.904;2023-06-26T03:25:47;96337.66;;;15.43;64.29
79127;BME280;68528;48.814;8.904;2023-06-26T03:28:13;96337.63;;;15.54;64.10
79127;BME280;68528;48.814;8.904;2023-06-26T03:30:39;96330.53;;;15.39;64.41
79127;BME280;68528;48.814;8.904;2023-06-26T03:33:04;96343.91;;;15.33;64.99
79127;BME280;68528;48.814;8.904;2023-06-26T03:35:30;96336.44;;;15.51;64.08
79127;BME280;68528;48.814;8.904;2023-06-26T03:37:55;96346.28;;;15.38;64.80
79127;BME280;68528;48.814;8.904;2023-06-26T03:40:21;96352.19;;;15.40;64.74
79127;BME280;68528;48.814;8.904;2023-06-26T04:03:24;96348.59;;;15.79;63.26
79127;BME280;68528;48.814;8.904;2023-06-26T04:05:49;96342.25;;;15.89;63.40
79127;BME280;68528;48.814;8.904;2023-06-26T04:08:16;96350.16;;;15.90;63.15
79127;BME280;68528;48.814;8.904;2023-06-26T04:10:42;96342.25;;;15.92;63.24
79127;BME280;68528;48.814;8.904;2023-06-26T04:13:10;96339.88;;;15.91;63.20
79127;BME280;68528;48.814;8.904;2023-06-26T04:15:40;96344.63;;;15.94;63.60
79127;BME280;68528;48.814;8.904;2023-06-26T04:18:05;96349.75;;;15.92;63.80
79127;BME280;68528;48.814;8.904;2023-06-26T04:24:05;96316.19;;;15.93;62.93
79127;BME280;68528;48.814;8.904;2023-06-26T04:26:34;96342.94;;;16.17;62.75
79127;BME280;68528;48.814;8.904;2023-06-26T04:29:02;96335.81;;;16.20;62.48
79127;BME280;68528;48.814;8.904;2023-06-26T04:32:28;96353.06;;;16.56;62.31
79127;BME280;68528;48.814;8.904;2023-06-26T05:03:17;96332.78;;;18.06;58.07
79127;BME280;68528;48.814;8.904;2023-06-26T05:05:43;96331.75;;;18.23;58.05
79127;BME280;68528;48.814;8.904;2023-06-26T05:08:29;96336.16;;;18.50;56.07
79127;BME280;68528;48.814;8.904;2023-06-26T05:10:55;96328.53;;;18.58;56.14
79127;BME280;68528;48.814;8.904;2023-06-26T05:31:32;96340.97;;;20.35;52.84
79127;BME280;68528;48.814;8.904;2023-06-26T05:33:59;96324.28;;;20.71;53.13
79127;BME280;68528;48.814;8.904;2023-06-26T05:36:28;96339.88;;;21.20;50.71
79127;BME280;68528;48.814;8.904;2023-06-26T05:38:54;96334.19;;;21.56;49.73
79127;BME280;68528;48.814;8.904;2023-06-26T05:41:21;96333.97;;;22.24;49.55
79127;BME280;68528;48.814;8.904;2023-06-26T05:43:47;96329.47;;;22.55;47.83
79127;BME280;68528;48.814;8.904;2023-06-26T05:46:13;96314.31;;;22.69;46.82
79127;BME280;68528;48.814;8.904;2023-06-26T05:48:38;96328.75;;;23.05;45.74
79127;BME280;68528;48.814;8.904;2023-06-26T05:51:24;96337.00;;;23.59;47.28
79127;BME280;68528;48.814;8.904;2023-06-26T05:53:50;96327.94;;;24.23;43.86
79127;BME280;68528;48.814;8.904;2023-06-26T05:56:16;96319.25;;;23.74;44.61
79127;BME280;68528;48.814;8.904;2023-06-26T05:58:43;96339.34;;;23.94;44.92
79127;BME280;68528;48.814;8.904;2023-06-26T06:01:09;96332.78;;;23.88;45.18
79127;BME280;68528;48.814;8.904;2023-06-26T06:03:34;96342.00;;;23.98;44.50
79127;BME280;68528;48.814;8.904;2023-06-26T06:06:00;96341.81;;;24.05;44.14
79127;BME280;68528;48.814;8.904;2023-06-26T06:08:26;96337.47;;;25.00;42.29
79127;BME280;68528;48.814;8.904;2023-06-26T06:10:59;96336.19;;;24.70;42.81
79127;BME280;68528;48.814;8.904;2023-06-26T06:13:48;96314.38;;;24.65;42.48
79127;BME280;68528;48.814;8.904;2023-06-26T06:16:34;96315.31;;;24.83;41.64
79127;BME280;68528;48.814;8.904;2023-06-26T06:19:07;96312.94;;;25.61;40.97
79127;BME280;68528;48.814;8.904;2023-06-26T06:27:52;96338.00;;;25.47;40.92
79127;BME280;68528;48.814;8.904;2023-06-26T06:30:18;96332.88;;;25.73;40.22
79127;BME280;68528;48.814;8.904;2023-06-26T06:32:43;96346.97;;;26.63;38.21
79127;BME280;68528;48.814;8.904;2023-06-26T06:35:08;96353.66;;;26.66;39.07
79127;BME280;68528;48.814;8.904;2023-06-26T06:37:37;96343.72;;;26.37;40.11
79127;BME280;68528;48.814;8.904;2023-06-26T06:40:05;96329.59;;;26.92;39.77
79127;BME280;68528;48.814;8.904;2023-06-26T06:42:31;96345.13;;;26.24;38.21
79127;BME280;68528;48.814;8.904;2023-06-26T06:45:35;96363.13;;;26.95;37.01
79127;BME280;68528;48.814;8.904;2023-06-26T06:48:03;96350.16;;;27.07;36.72
79127;BME280;68528;48.814;8.904;2023-06-26T06:50:28;96350.06;;;27.25;36.52
79127;BME280;68528;48.814;8.904;2023-06-26T06:52:54;96352.59;;;28.50;34.89
79127;BME280;68528;48.814;8.904;2023-06-26T06:55:53;96357.31;;;28.97;33.60
79127;BME280;68528;48.814;8.904;2023-06-26T06:58:18;96337.75;;;28.12;34.06
79127;BME280;68528;48.814;8.904;2023-06-26T07:00:49;96359.66;;;28.84;33.72
79127;BME280;68528;48.814;8.904;2023-06-26T07:03:19;96352.75;;;28.70;33.28
79127;BME280;68528;48.814;8.904;2023-06-26T07:05:46;96338.59;;;27.05;35.83
79127;BME280;68528;48.814;8.904;2023-06-26T07:08:12;96342.25;;;27.38;36.25
79127;BME280;68528;48.814;8.904;2023-06-26T07:10:38;96337.94;;;27.10;35.34
79127;BME280;68528;48.814;8.904;2023-06-26T07:13:03;96348.69;;;27.20;35.85
79127;BME280;68528;48.814;8.904;2023-06-26T07:15:30;96352.16;;;27.15;35.86
79127;BME280;68528;48.814;8.904;2023-06-26T07:17:56;96341.19;;;26.58;35.45
79127;BME280;68528;48.814;8.904;2023-06-26T07:21:04;96345.41;;;27.22;35.82
79127;BME280;68528;48.814;8.904;2023-06-26T07:23:29;96350.56;;;28.13;33.96
79127;BME280;68528;48.814;8.904;2023-06-26T07:25:56;96336.28;;;27.92;34.10
79127;BME280;68528;48.814;8.904;2023-06-26T07:28:22;96349.72;;;28.59;34.58
79127;BME280;68528;48.814;8.904;2023-06-26T07:30:47;96338.75;;;29.05;32.92
79127;BME280;68528;48.814;8.904;2023-06-26T07:33:14;96345.72;;;28.13;33.21
79127;BME280;68528;48.814;8.904;2023-06-26T07:35:46;96343.69;;;28.28;33.21
79127;BME280;68528;48.814;8.904;2023-06-26T07:38:12;96357.13;;;27.62;33.68
79127;BME280;68528;48.814;8.904;2023-06-26T07:40:43;96356.50;;;27.58;33.08
79127;BME280;68528;48.814;8.904;2023-06-26T07:59:29;96357.94;;;27.77;33.56
79127;BME280;68528;48.814;8.904;2023-06-26T08:14:09;96324.69;;;28.38;31.89
79127;BME280;68528;48.814;8.904;2023-06-26T08:16:44;96360.13;;;27.82;33.13
79127;BME280;68528;48.814;8.904;2023-06-26T08:19:34;96362.03;;;27.76;33.23
79127;BME280;68528;48.814;8.904;2023-06-26T08:22:00;96349.41;;;27.72;34.11
79127;BME280;68528;48.814;8.904;2023-06-26T08:24:25;96350.25;;;28.34;32.45
79127;BME280;68528;48.814;8.904;2023-06-26T08:26:50;96349.84;;;28.94;32.19
79127;BME280;68528;48.814;8.904;2023-06-26T08:29:16;96341.97;;;30.37;31.39
79127;BME280;68528;48.814;8.904;2023-06-26T08:31:42;96349.34;;;29.39;31.82
79127;BME280;68528;48.814;8.904;2023-06-26T08:34:08;96342.91;;;29.39;31.31
79127;BME280;68528;48.814;8.904;2023-06-26T08:36:41;96345.25;;;29.40;31.90
79127;BME280;68528;48.814;8.904;2023-06-26T08:39:06;96328.19;;;30.90;29.40
79127;BME280;68528;48.814;8.904;2023-06-26T08:41:34;96340.16;;;29.94;30.06
79127;BME280;68528;48.814;8.904;2023-06-26T08:44:00;96337.97;;;29.69;30.90
79127;BME280;68528;48.814;8.904;2023-06-26T08:46:26;96338.66;;;29.14;31.00
79127;BME280;68528;48.814;8.904;2023-06-26T08:49:04;96344.91;;;29.18;31.26
79127;BME280;68528;48.814;8.904;2023-06-26T08:51:33;96348.69;;;30.40;30.12
79127;BME280;68528;48.814;8.904;2023-06-26T08:54:07;96339.41;;;31.73;30.52
79127;BME280;68528;48.814;8.904;2023-06-26T09:12:05;96343.28;;;29.46;31.10
79127;BME280;68528;48.814;8.904;2023-06-26T09:14:50;96359.19;;;29.79;29.97
79127;BME280;68528;48.814;8.904;2023-06-26T09:17:16;96346.56;;;30.80;30.08
79127;BME280;68528;48.814;8.904;2023-06-26T09:19:45;96352.81;;;32.20;27.63
79127;BME280;68528;48.814;8.904;2023-06-26T09:22:12;96352.84;;;32.31;26.49
79127;BME280;68528;48.814;8.904;2023-06-26T09:24:41;96353.56;;;30.19;28.85
79127;BME280;68528;48.814;8.904;2023-06-26T09:27:07;96342.19;;;30.54;28.31
79127;BME280;68528;48.814;8.904;2023-06-26T09:29:32;96345.16;;;32.37;27.00
79127;BME280;68528;48.814;8.904;2023-06-26T09:32:00;96352.31;;;31.43;27.23
79127;BME280;68528;48.814;8.904;2023-06-26T09:34:32;96358.31;;;30.07;29.94
79127;BME280;68528;48.814;8.904;2023-06-26T09:36:58;96356.50;;;30.10;30.25
79127;BME280;68528;48.814;8.904;2023-06-26T09:39:25;96354.25;;;31.00;31.44
79127;BME280;68528;48.814;8.904;2023-06-26T09:41:50;96354.47;;;30.10;30.68
79127;BME280;68528;48.814;8.904;2023-06-26T09:44:16;96348.53;;;30.08;30.62
79127;BME280;68528;48.814;8.904;2023-06-26T09:46:45;96353.97;;;29.92;30.13
79127;BME280;68528;48.814;8.904;2023-06-26T09:49:11;96355.28;;;29.12;32.11
79127;BME280;68528;48.814;8.904;2023-06-26T09:51:40;96360.31;;;29.08;32.84
79127;BME280;68528;48.814;8.904;2023-06-26T09:54:09;96349.81;;;29.53;32.13
79127;BME280;68528;48.814;8.904;2023-06-26T09:56:35;96357.72;;;29.19;33.28
79127;BME280;68528;48.814;8.904;2023-06-26T09:59:02;96356.25;;;30.28;32.74
79127;BME280;68528;48.814;8.904;2023-06-26T10:01:28;96351.41;;;28.95;34.66
79127;BME280;68528;48.814;8.904;2023-06-26T10:03:54;96367.03;;;29.40;34.22
79127;BME280;68528;48.814;8.904;2023-06-26T10:06:33;96373.22;;;29.59;33.81
79127;BME280;68528;48.814;8.904;2023-06-26T10:09:02;96379.44;;;27.98;36.15
79127;BME280;68528;48.814;8.904;2023-06-26T10:11:44;96383.94;;;28.96;33.53
79127;BME280;68528;48.814;8.904;2023-06-26T10:14:12;96396.34;;;30.12;33.40
79127;BME280;68528;48.814;8.904;2023-06-26T10:16:39;96382.59;;;28.92;34.04
79127;BME280;68528;48.814;8.904;2023-06-26T10:19:08;96406.28;;;27.34;36.00
79127;BME280;68528;48.814;8.904;2023-06-26T10:21:37;96386.72;;;28.29;34.57
79127;BME280;68528;48.814;8.904;2023-06-26T10:24:09;96392.59;;;28.40;35.11
79127;BME280;68528;48.814;8.904;2023-06-26T10:27:35;96392.63;;;27.60;36.95
79127;BME280;68528;48.814;8.904;2023-06-26T10:30:04;96389.44;;;28.23;35.77
79127;BME280;68528;48.814;8.904;2023-06-26T10:32:30;96397.59;;;27.88;36.36
79127;BME280;68528;48.814;8.904;2023-06-26T10:34:56;96410.00;;;26.89;38.18
79127;BME280;68528;48.814;8.904;2023-06-26T10:37:44;96416.72;;;26.56;38.92
79127;BME280;68528;48.814;8.904;2023-06-26T10:40:10;96421.41;;;26.59;39.20
79127;BME280;68528;48.814;8.904;2023-06-26T10:42:37;96418.16;;;27.47;38.04
79127;BME280;68528;48.814;8.904;2023-06-26T10:45:15;96421.94;;;27.17;38.91
79127;BME280;68528;48.814;8.904;2023-06-26T10:47:42;96423.41;;;26.94;40.28
79127;BME280;68528;48.814;8.904;2023-06-26T10:50:35;96415.19;;;27.33;39.06
79127;BME280;68528;48.814;8.904;2023-06-26T10:53:15;96404.34;;;28.38;37.76
79127;BME280;68528;48.814;8.904;2023-06-26T10:56:05;96416.41;;;30.54;34.39
79127;BME280;68528;48.814;8.904;2023-06-26T10:58:31;96421.63;;;29.37;35.76
79127;BME280;68528;48.814;8.904;2023-06-26T11:04:07;96405.69;;;30.58;34.61
79127;BME280;68528;48.814;8.904;2023-06-26T11:06:34;96411.84;;;30.57;33.63
79127;BME280;68528;48.814;8.904;2023-06-26T11:09:13;96410.09;;;29.55;36.26
79127;BME280;68528;48.814;8.904;2023-06-26T11:14:19;96406.06;;;29.91;35.73
79127;BME280;68528;48.814;8.904;2023-06-26T11:16:46;96396.50;;;29.54;35.58
79127;BME280;68528;48.814;8.904;2023-06-26T11:19:13;96402.81;;;29.98;34.36
79127;BME280;68528;48.814;8.904;2023-06-26T11:21:38;96407.22;;;29.20;36.43
79127;BME280;68528;48.814;8.904;2023-06-26T11:24:06;96402.31;;;29.65;36.52
79127;BME280;68528;48.814;8.904;2023-06-26T11:26:40;96421.84;;;27.86;39.07
79127;BME280;68528;48.814;8.904;2023-06-26T11:29:26;96425.41;;;28.05;39.18
79127;BME280;68528;48.814;8.904;2023-06-26T11:31:58;96418.44;;;28.15;38.93
79127;BME280;68528;48.814;8.904;2023-06-26T11:34:24;96427.13;;;28.26;39.32
79127;BME280;68528;48.814;8.904;2023-06-26T11:36:50;96443.63;;;28.09;40.07
79127;BME280;68528;48.814;8.904;2023-06-26T11:41:47;96435.72;;;26.15;43.79
79127;BME280;68528;48.814;8.904;2023-06-26T11:44:14;96448.19;;;26.14;44.33
79127;BME280;68528;48.814;8.904;2023-06-26T11:46:59;96437.44;;;26.22;43.79
79127;BME280;68528;48.814;8.904;2023-06-26T11:49:28;96421.69;;;26.15;44.01
79127;BME280;68528;48.814;8.904;2023-06-26T11:51:54;96458.38;;;26.39;44.48
79127;BME280;68528;48.814;8.904;2023-06-26T11:54:24;96446.66;;;25.74;45.55
79127;BME280;68528;48.814;8.904;2023-06-26T11:56:58;96460.28;;;26.02;44.92
79127;BME280;68528;48.814;8.904;2023-06-26T11:59:24;96450.56;;;25.76;45.60
79127;BME280;68528;48.814;8.904;2023-06-26T12:02:14;96460.19;;;26.15;44.84
79127;BME280;68528;48.814;8.904;2023-06-26T12:04:46;96459.13;;;27.21;42.33
79127;BME280;68528;48.814;8.904;2023-06-26T12:07:12;96431.91;;;28.11;40.57
79127;BME280;68528;48.814;8.904;2023-06-26T12:09:39;96435.50;;;28.35;39.85
79127;BME280;68528;48.814;8.904;2023-06-26T12:12:07;96424.78;;;28.86;38.28
79127;BME280;68528;48.814;8.904;2023-06-26T12:14:33;96449.56;;;28.35;39.99
79127;BME280;68528;48.814;8.904;2023-06-26T12:32:46;96447.88;;;29.28;37.46
79127;BME280;68528;48.814;8.904;2023-06-26T12:35:29;96454.03;;;29.91;37.72
79127;BME280;68528;48.814;8.904;2023-06-26T13:10:26;96424.56;;;28.90;34.23
79127;BME280;68528;48.814;8.904;2023-06-26T13:46:50;96409.81;;;28.80;34.74
79127;BME280;68528;48.814;8.904;2023-06-26T13:49:16;96420.50;;;28.76;32.30
79127;BME280;68528;48.814;8.904;2023-06-26T13:51:41;96413.31;;;29.04;31.81
79127;BME280;68528;48.814;8.904;2023-06-26T13:54:12;96419.19;;;29.30;32.20
79127;BME280;68528;48.814;8.904;2023-06-26T13:56:37;96413.34;;;29.33;33.21
79127;BME280;68528;48.814;8.904;2023-06-26T13:59:03;96423.03;;;28.27;32.36
79127;BME280;68528;48.814;8.904;2023-06-26T14:01:28;96426.78;;;28.71;32.57
79127;BME280;68528;48.814;8.904;2023-06-26T14:03:55;96417.00;;;29.69;32.33
79127;BME280;68528;48.814;8.904;2023-06-26T14:06:24;96423.25;;;29.14;32.74
79127;BME280;68528;48.814;8.904;2023-06-26T14:09:00;96428.41;;;29.01;31.51
79127;BME280;68528;48.814;8.904;2023-06-26T14:11:26;96425.25;;;28.23;33.57
79127;BME280;68528;48.814;8.904;2023-06-26T14:13:51;96435.03;;;30.06;32.21
79127;BME280;68528;48.814;8.904;2023-06-26T14:16:16;96434.84;;;29.31;31.54
79127;BME280;68528;48.814;8.904;2023-06-26T14:18:44;96416.91;;;29.48;35.10
79127;BME280;68528;48.814;8.904;2023-06-26T14:24:40;96404.47;;;29.55;31.14
79127;BME280;68528;48.814;8.904;2023-06-26T14:45:43;96445.63;;;28.18;33.72
79127;BME280;68528;48.814;8.904;2023-06-26T14:48:55;96412.84;;;28.06;33.54
79127;BME280;68528;48.814;8.904;2023-06-26T14:51:21;96418.91;;;28.37;34.56
79127;BME280;68528;48.814;8.904;2023-06-26T14:53:48;96420.34;;;29.23;32.56
79127;BME280;68528;48.814;8.904;2023-06-26T14:56:13;96430.16;;;28.60;33.75
79127;BME280;68528;48.814;8.904;2023-06-26T14:58:39;96451.53;;;27.54;35.51
79127;BME280;68528;48.814;8.904;2023-06-26T15:01:05;96462.63;;;27.58;34.44
79127;BME280;68528;48.814;8.904;2023-06-26T15:03:31;96426.19;;;27.63;34.81
79127;BME280;68528;48.814;8.904;2023-06-26T15:05:58;96402.91;;;27.63;34.69
79127;BME280;68528;48.814;8.904;2023-06-26T15:08:24;96434.06;;;27.50;34.24
79127;BME280;68528;48.814;8.904;2023-06-26T15:10:50;96416.66;;;27.10;33.84
79127;BME280;68528;48.814;8.904;2023-06-26T15:13:19;96436.59;;;27.30;35.25
79127;BME280;68528;48.814;8.904;2023-06-26T15:15:44;96431.34;;;26.14;36.09
79127;BME280;68528;48.814;8.904;2023-06-26T15:18:12;96417.78;;;26.22;37.68
79127;BME280;68528;48.814;8.904;2023-06-26T15:20:38;96411.38;;;26.21;36.23
79127;BME280;68528;48.814;8.904;2023-06-26T15:23:03;96439.66;;;26.72;35.06
79127;BME280;68528;48.814;8.904;2023-06-26T15:25:31;96414.34;;;26.36;36.27
79127;BME280;68528;48.814;8.904;2023-06-26T15:27:57;96414.22;;;26.30;38.91
79127;BME280;68528;48.814;8.904;2023-06-26T15:30:23;96419.06;;;26.21;35.92
79127;BME280;68528;48.814;8.904;2023-06-26T15:32:49;96420.13;;;26.51;35.98
79127;BME280;68528;48.814;8.904;2023-06-26T15:35:14;96431.06;;;26.39;35.89
79127;BME280;68528;48.814;8.904;2023-06-26T15:37:49;96421.91;;;25.90;37.23
79127;BME280;68528;48.814;8.904;2023-06-26T15:40:16;96429.81;;;25.74;37.32
79127;BME280;68528;48.814;8.904;2023-06-26T15:43:17;96393.31;;;25.25;40.65
79127;BME280;68528;48.814;8.904;2023-06-26T15:45:45;96394.47;;;24.84;39.17
79127;BME280;68528;48.814;8.904;2023-06-26T15:48:14;96419.75;;;25.45;38.06
79127;BME280;68528;48.814;8.904;2023-06-26T15:50:40;96420.75;;;25.30;37.44
79127;BME280;68528;48.814;8.904;2023-06-26T15:53:33;96429.50;;;25.41;37.74
79127;BME280;68528;48.814;8.904;2023-06-26T15:56:31;96417.78;;;25.33;38.90
79127;BME280;68528;48.814;8.904;2023-06-26T15:58:57;96433.09;;;25.11;38.53
79127;BME280;68528;48.814;8.904;2023-06-26T16:01:22;96433.50;;;25.00;38.96
79127;BME280;68528;48.814;8.904;2023-06-26T16:03:49;96435.13;;;24.88;38.26
79127;BME280;68528;48.814;8.904;2023-06-26T16:06:16;96414.63;;;24.91;38.44
79127;BME280;68528;48.814;8.904;2023-06-26T16:08:41;96435.28;;;25.68;37.27
79127;BME280;68528;48.814;8.904;2023-06-26T16:11:07;96423.22;;;25.58;36.88
79127;BME280;68528;48.814;8.904;2023-06-26T16:13:44;96435.34;;;25.25;35.79
79127;BME280;68528;48.814;8.904;2023-06-26T16:16:10;96414.41;;;25.08;34.98
79127;BME280;68528;48.814;8.904;2023-06-26T16:18:37;96429.09;;;25.51;34.58
79127;BME280;68528;48.814;8.904;2023-06-26T16:21:03;96433.97;;;25.60;34.61
79127;BME280;68528;48.814;8.904;2023-06-26T16:23:29;96437.22;;;25.98;33.79
79127;BME280;68528;48.814;8.904;2023-06-26T16:25:54;96447.88;;;25.63;33.07
79127;BME280;68528;48.814;8.904;2023-06-26T16:28:20;96444.28;;;25.63;32.28
79127;BME280;68528;48.814;8.904;2023-06-26T16:30:45;96437.53;;;25.51;31.45
79127;BME280;68528;48.814;8.904;2023-06-26T16:33:11;96448.28;;;25.01;32.60
79127;BME280;68528;48.814;8.904;2023-06-26T16:35:37;96447.66;;;25.49;32.12
79127;BME280;68528;48.814;8.904;2023-06-26T16:38:04;96454.59;;;25.14;32.25
79127;BME280;68528;48.814;8.904;2023-06-26T16:40:32;96454.97;;;24.60;31.60
79127;BME280;68528;48.814;8.904;2023-06-26T16:42:57;96440.75;;;24.54;31.16
79127;BME280;68528;48.814;8.904;2023-06-26T16:45:22;96429.56;;;24.33;32.04
79127;BME280;68528;48.814;8.904;2023-06-26T16:47:48;96446.47;;;24.29;31.54
79127;BME280;68528;48.814;8.904;2023-06-26T16:50:16;96441.34;;;24.15;31.01
79127;BME280;68528;48.814;8.904;2023-06-26T16:52:46;96448.75;;;24.09;32.04
79127;BME280;68528;48.814;8.904;2023-06-26T16:55:18;96422.63;;;23.78;31.91
79127;BME280;68528;48.814;8.904;2023-06-26T16:58:09;96453.81;;;23.76;32.28
79127;BME280;68528;48.814;8.904;2023-06-26T17:00:55;96457.28;;;23.68;31.96
79127;BME280;68528;48.814;8.904;2023-06-26T17:03:58;96465.88;;;24.11;32.46
79127;BME280;68528;48.814;8.904;2023-06-26T17:06:24;96454.41;;;23.59;31.88
79127;BME280;68528;48.814;8.904;2023-06-26T17:28:49;96459.75;;;23.40;31.16
79127;BME280;68528;48.814;8.904;2023-06-26T17:31:41;96476.09;;;23.55;33.33
79127;BME280;68528;48.814;8.904;2023-06-26T17:34:35;96483.44;;;23.61;32.15
79127;BME280;68528;48.814;8.904;2023-06-26T17:37:02;96459.03;;;23.11;32.20
79127;BME280;68528;48.814;8.904;2023-06-26T17:39:31;96490.66;;;23.08;31.21